• Join FlightAware (Why Join?)
  • Login
  • US Flag 
05:31AM EDT


 

Airport Tracker/Info


-or-


 

Live Flight TrackerFlight Track Log ✈ UPS110 ✈ 04-May-2013 ✈ KSDF - PANC

Flight Track Log - Related Links

Times and Time Zones

All times are in EDT time to prevent confusion due to time zone crossing. See the UPS110 flight status page for this flight to view local times or setup timezone preferences in your user account.

Time Position Orientation Groundspeed Altitude Reporting Facility
EDT Latitude Longitude Course Direction KTS MPH feet Rate Location/Type
04:47AM 38.1490 -85.7380 165° South 163 188 2,000  Level FlightAware
04:47AM 38.1250 -85.7440 191° South 197 227 2,900 1,920 Climbing FlightAware
04:48AM 38.1010 -85.7500 191° South 213 245 3,800 1,920 Climbing FlightAware
04:48AM 38.0750 -85.7560 190° South 237 273 4,500 1,860 Climbing FlightAware
04:48AM 38.0650 -85.7620 205° Southwest 246 283 4,900 2,160 Climbing FlightAware
04:49AM 38.0540 -85.7770 227° Southwest 260 299 5,400 2,400 Climbing FlightAware
04:49AM 38.0480 -85.8010 252° West 275 316 6,100 2,520 Climbing FlightAware
04:49AM 38.0560 -85.8400 285° West 297 342 7,100 2,700 Climbing FlightAware
04:50AM 38.0810 -85.8810 308° West 293 337 8,600 2,460 Climbing FlightAware
04:50AM 38.1110 -85.9190 315° West 309 356 9,600 1,800 Climbing FlightAware
04:51AM 38.1530 -85.9700 316° Northwest 328 377 10,700 1,440 Climbing FlightAware
04:52AM 38.2690 -86.1080 317° Northwest 423 487 12,800 1,740 Climbing FlightAware
04:53AM 38.3100 -86.1560 317° Northwest 431 496 14,200 3,000 Climbing FlightAware
04:54AM 38.3640 -86.2220 316° Northwest 437 503 16,100 3,120 Climbing FlightAware
04:54AM 38.4100 -86.2760 317° Northwest 443 510 17,600 2,460 Climbing FlightAware
04:55AM 38.4770 -86.3560 317° Northwest 458 527 19,200 2,160 Climbing FlightAware
04:55AM 38.5380 -86.4290 317° Northwest 468 539 20,700 2,280 Climbing FlightAware
04:56AM 38.5970 -86.4990 317° Northwest 474 545 22,100 2,100 Climbing FlightAware
04:57AM 38.6680 -86.5840 317° Northwest 486 559 23,500 1,800 Climbing FlightAware
04:57AM 38.7170 -86.6430 317° Northwest 494 568 24,400 1,800 Climbing FlightAware
04:58AM 38.7850 -86.7250 317° Northwest 505 581 25,600 1,680 Climbing FlightAware
04:59AM 38.8540 -86.8080 317° Northwest 514 592 26,700 2,100 Climbing FlightAware
04:59AM 38.9370 -86.9090 317° Northwest 505 581 28,800 2,400 Climbing FlightAware
05:00AM 39.0150 -87.0030 317° Northwest 497 572 30,500 2,040 Climbing FlightAware
05:01AM 39.0610 -87.0590 317° Northwest 495 570 31,400 1,680 Climbing FlightAware
05:01AM 39.1380 -87.1540 316° Northwest 495 570 32,600 1,320 Climbing FlightAware
05:02AM 39.1850 -87.2110 317° Northwest 498 573 33,100 1,080 Climbing FlightAware
05:03AM 39.2530 -87.2940 317° Northwest 499 574 33,900 720 Climbing FlightAware
05:03AM 39.3140 -87.3700 316° Northwest 499 574 34,000 60 Climbing FlightAware
05:04AM 39.3840 -87.4550 317° Northwest 496 571 34,000  Level FlightAware
05:05AM 39.4500 -87.5370 316° Northwest 496 571 34,000  Level FlightAware
05:05AM 39.5060 -87.6070 316° Northwest 499 574 34,000  Level FlightAware
05:06AM 39.5900 -87.7110 316° Northwest 500 575 34,000  Level FlightAware
05:07AM 39.6840 -87.8290 316° Northwest 501 577 34,000  Level FlightAware
05:08AM 39.7500 -87.9110 316° Northwest 501 577 34,000  Level FlightAware
05:08AM 39.8060 -87.9820 316° Northwest 502 578 34,000  Level FlightAware
05:09AM 39.8740 -88.0680 316° Northwest 503 579 34,000  Level FlightAware
05:10AM 39.9500 -88.1640 316° Northwest 504 580 34,000  Level FlightAware
05:10AM 40.0170 -88.2490 316° Northwest 505 581 34,000  Level FlightAware
05:11AM 40.0840 -88.3340 316° Northwest 505 581 34,000  Level FlightAware
05:11AM 40.1320 -88.3950 316° Northwest 505 581 34,000  Level FlightAware
05:12AM 40.1990 -88.4810 316° Northwest 504 580 34,000  Level FlightAware
05:13AM 40.2720 -88.5740 316° Northwest 504 580 34,000  Level FlightAware
05:13AM 40.3410 -88.6630 316° Northwest 502 578 34,000  Level FlightAware
05:14AM 40.3980 -88.7370 315° West 502 578 34,000  Level FlightAware
05:15AM 40.4710 -88.8310 316° Northwest 500 575 34,000  Level FlightAware
05:15AM 40.5390 -88.9190 315° West 499 574 34,000  Level FlightAware
05:16AM 40.6040 -89.0030 316° Northwest 499 574 34,000  Level FlightAware
05:17AM 40.6790 -89.1010 315° West 498 573 34,000  Level FlightAware
05:18AM 40.7450 -89.1870 315° West 497 572 34,000  Level FlightAware
05:18AM 40.8150 -89.2790 315° West 497 572 34,000  Level FlightAware
05:19AM 40.8810 -89.3670 315° West 495 570 34,000  Level FlightAware
05:20AM 40.9540 -89.4630 315° West 494 568 34,000  Level FlightAware
05:20AM 41.0190 -89.5490 315° West 494 568 34,000  Level FlightAware
05:21AM 41.0850 -89.6370 315° West 494 568 34,000  Level FlightAware
05:22AM 41.1560 -89.7310 315° West 494 568 34,000  Level FlightAware
05:22AM 41.2200 -89.8170 315° West 494 568 34,000  Level FlightAware
05:23AM 41.2930 -89.9150 315° West 494 568 34,000  Level FlightAware
05:24AM 41.3580 -90.0020 315° West 496 571 34,000  Level FlightAware
05:25AM 41.4230 -90.0910 314° West 497 572 34,000  Level FlightAware
05:25AM 41.4940 -90.1860 315° West 499 574 34,000  Level FlightAware
05:26AM 41.5580 -90.2740 314° West 499 574 34,000  Level FlightAware
05:27AM 41.6230 -90.3620 315° West 499 574 34,000  Level FlightAware
05:27AM 41.6980 -90.4640 315° West 499 574 34,000  Level FlightAware
05:28AM 41.7610 -90.5510 314° West 498 573 34,000  Level FlightAware
05:29AM 41.8250 -90.6390 314° West 497 572 34,000  Level FlightAware
05:29AM 41.8950 -90.7360 314° West 496 571 34,000  Level FlightAware
05:30AM 41.9590 -90.8240 314° West 495 570 34,000  Level FlightAware
05:31AM 42.0330 -90.9270 314° West 494 568 34,000  Level FlightAware
05:32AM 42.0960 -91.0150 314° West 493 567 34,000  Level FlightAware
05:32AM 42.1580 -91.1010 314° West 492 566 34,000  Level FlightAware
05:33AM 42.2370 -91.2120 314° West 492 566 34,000  Level FlightAware
05:34AM 42.3010 -91.3030 314° West 492 566 34,000  Level FlightAware
05:34AM 42.3640 -91.3920 314° West 491 565 34,000  Level FlightAware
05:35AM 42.4340 -91.4900 314° West 493 567 34,000  Level FlightAware
05:36AM 42.4940 -91.5770 313° West 495 570 34,000  Level FlightAware
05:36AM 42.5600 -91.6710 314° West 495 570 34,000  Level FlightAware
05:37AM 42.6290 -91.7690 314° West 496 571 34,000  Level FlightAware
05:38AM 42.6750 -91.8340 314° West 497 572 34,000  Level FlightAware
05:38AM 42.7350 -91.9220 313° West 498 573 34,000  Level FlightAware
05:39AM 42.8010 -92.0160 314° West 498 573 34,000  Level FlightAware
05:40AM 42.8710 -92.1180 313° West 497 572 34,000  Level FlightAware
05:40AM 42.9370 -92.2150 313° West 498 573 34,000  Level FlightAware
05:41AM 43.0000 -92.3060 313° West 496 571 34,000  Level FlightAware
05:42AM 43.0670 -92.4040 313° West 495 570 34,000  Level FlightAware
05:43AM 43.1300 -92.4970 313° West 494 568 34,000  Level FlightAware
05:43AM 43.2020 -92.6020 313° West 493 567 34,000  Level FlightAware
05:44AM 43.2640 -92.6950 312° West 491 565 34,000  Level FlightAware
05:45AM 43.3320 -92.7950 313° West 490 564 34,000  Level FlightAware
05:45AM 43.3930 -92.8860 313° West 489 563 34,000  Level FlightAware
05:46AM 43.4540 -92.9770 313° West 489 563 34,000  Level FlightAware
05:47AM 43.5240 -93.0840 312° West 489 563 34,000  Level FlightAware
05:47AM 43.5820 -93.1700 313° West 489 563 34,000  Level FlightAware
05:48AM 43.6530 -93.2760 313° West 489 563 34,000  Level FlightAware
05:49AM 43.7150 -93.3690 313° West 489 563 34,000  Level FlightAware
05:50AM 43.7810 -93.4700 312° West 489 563 34,000  Level FlightAware
05:50AM 43.8440 -93.5670 312° West 489 563 34,000  Level FlightAware
05:51AM 43.9050 -93.6590 313° West 487 560 34,000  Level FlightAware
05:52AM 43.9740 -93.7660 312° West 485 558 34,000  Level FlightAware
05:52AM 44.0350 -93.8600 312° West 485 558 34,000  Level FlightAware
05:53AM 44.1010 -93.9610 312° West 484 557 34,000  Level FlightAware
05:54AM 44.1600 -94.0530 312° West 484 557 34,000  Level FlightAware
05:54AM 44.2200 -94.1460 312° West 483 556 34,000  Level FlightAware
05:55AM 44.2870 -94.2510 312° West 483 556 34,000  Level FlightAware
05:56AM 44.3480 -94.3460 312° West 483 556 34,000  Level FlightAware
05:57AM 44.4130 -94.4490 311° West 483 556 34,000  Level FlightAware
05:57AM 44.4720 -94.5420 312° West 484 557 34,000  Level FlightAware
05:58AM 44.5310 -94.6360 311° West 485 558 34,000  Level FlightAware
05:59AM 44.5990 -94.7430 312° West 486 559 34,000  Level FlightAware
05:59AM 44.6590 -94.8390 311° West 486 559 34,000  Level FlightAware
06:00AM 44.7260 -94.9460 311° West 486 559 34,000  Level FlightAware
06:01AM 44.7850 -95.0400 312° West 487 560 34,000  Level FlightAware
06:01AM 44.8440 -95.1370 311° West 488 562 34,000  Level FlightAware
06:02AM 44.9090 -95.2410 311° West 488 562 34,000  Level FlightAware
06:03AM 44.9680 -95.3370 311° West 489 563 34,000  Level FlightAware
06:04AM 45.0370 -95.4490 311° West 488 562 34,000  Level FlightAware
06:04AM 45.0950 -95.5450 311° West 488 562 34,000  Level FlightAware
06:05AM 45.1540 -95.6410 311° West 487 560 34,000  Level FlightAware
06:06AM 45.2190 -95.7490 311° West 487 560 34,000  Level FlightAware
06:06AM 45.2790 -95.8470 311° West 486 559 34,000  Level FlightAware
06:07AM 45.3430 -95.9530 311° West 485 558 34,000  Level FlightAware
06:08AM 45.3960 -96.0420 310° West 484 557 34,000  Level FlightAware
06:08AM 45.4590 -96.1470 311° West 483 556 34,000  Level FlightAware
06:09AM 45.5250 -96.2570 311° West 481 554 34,000  Level FlightAware
06:10AM 45.5830 -96.3560 310° West 481 554 34,000  Level FlightAware
06:11AM 45.6460 -96.4630 310° West 481 554 34,000  Level FlightAware
06:11AM 45.7030 -96.5590 310° West 480 552 34,000  Level FlightAware
06:12AM 45.7600 -96.6550 310° West 479 551 34,000  Level FlightAware
06:13AM 45.8250 -96.7660 310° West 479 551 34,000  Level FlightAware
06:13AM 45.8820 -96.8650 310° West 479 551 34,000  Level FlightAware
06:14AM 45.9450 -96.9740 310° West 478 550 34,000  Level FlightAware
06:15AM 46.0010 -97.0700 310° West 477 549 34,000  Level FlightAware
06:15AM 46.0570 -97.1670 310° West 477 549 34,000  Level FlightAware
06:16AM 46.1130 -97.2660 309° West 477 549 34,000  Level FlightAware
06:17AM 46.1790 -97.3790 310° West 478 550 34,000  Level FlightAware
06:18AM 46.2410 -97.4870 310° West 478 550 34,000  Level FlightAware
06:18AM 46.2860 -97.5680 309° West 479 551 34,000  Level FlightAware
06:19AM 46.3530 -97.6850 310° West 477 549 34,000  Level FlightAware
06:20AM 46.4140 -97.7940 309° West 477 549 34,000  Level FlightAware
06:20AM 46.4700 -97.8940 309° West 477 549 34,000  Level FlightAware
06:21AM 46.5220 -97.9860 309° West 477 549 34,000  Level FlightAware
06:22AM 46.5690 -98.0710 309° West 477 549 34,000  Level FlightAware
06:22AM 46.6450 -98.2060 309° West 475 547 34,000  Level FlightAware
06:23AM 46.7030 -98.3120 309° West 475 547 34,000  Level FlightAware
06:24AM 46.7700 -98.4350 309° West 474 545 34,000  Level FlightAware
06:25AM 46.8160 -98.5200 308° West 474 545 34,000  Level FlightAware
06:26AM 46.8730 -98.6280 308° West 474 545 34,000  Level FlightAware
06:26AM 46.9190 -98.7140 308° West 474 545 34,000  Level FlightAware
06:27AM 46.9650 -98.8000 308° West 474 545 34,000  Level FlightAware
06:28AM 47.0110 -98.8860 308° West 474 545 34,000  Level FlightAware
06:28AM 47.0570 -98.9720 308° West 474 545 34,000  Level FlightAware
06:29AM 47.1140 -99.0800 308° West 474 545 34,000  Level FlightAware
06:30AM 47.1600 -99.1660 308° West 474 545 34,000  Level FlightAware
06:30AM 47.2060 -99.2530 308° West 474 545 34,000  Level FlightAware
06:31AM 47.2520 -99.3390 308° West 474 545 34,000  Level FlightAware
06:32AM 47.2970 -99.4260 307° West 474 545 34,000  Level FlightAware
06:32AM 47.3430 -99.5130 308° West 474 545 34,000  Level FlightAware
06:33AM 47.4010 -99.6210 308° West 474 545 34,000  Level FlightAware
06:38AM 47.8670 -100.5050 308° West 454 522 34,000  Level FlightAware
06:38AM 47.9110 -100.5910 307° West 454 522 34,000  Level FlightAware
06:40AM 47.9920 -100.7500 307° West 454 522 34,000  Level FlightAware
06:40AM 48.0570 -100.8820 306° West 454 522 34,000  Level FlightAware
06:41AM 48.0990 -100.9680 306° West 454 522 34,000  Level FlightAware
06:42AM 48.1410 -101.0550 306° West 454 522 34,000  Level FlightAware
06:42AM 48.1830 -101.1420 306° West 454 522 34,000  Level FlightAware
06:43AM 48.2350 -101.2500 306° West 454 522 34,000  Level FlightAware
06:44AM 48.2770 -101.3370 306° West 454 522 34,000  Level FlightAware
06:45AM 48.3190 -101.4240 306° West 454 522 34,000  Level FlightAware
06:45AM 48.3610 -101.5110 306° West 454 522 34,000  Level FlightAware
06:46AM 48.4030 -101.5980 306° West 454 522 34,000  Level FlightAware
06:47AM 48.4550 -101.7060 306° West 454 522 34,000  Level FlightAware
06:47AM 48.4970 -101.7940 306° West 454 522 34,000  Level FlightAware
06:48AM 48.5390 -101.8810 306° West 454 522 34,000  Level FlightAware
06:49AM 48.5810 -101.9680 306° West 454 522 34,000  Level FlightAware
06:49AM 48.6230 -102.0560 306° West 454 522 34,000  Level FlightAware
06:51AM 49.0310 -102.3850 332° Northwest 463 533 34,000  Level FlightAware
06:52AM 49.0820 -102.4590 316° Northwest 462 532 34,000  Level FlightAware
06:53AM 49.1420 -102.5470 316° Northwest 461 531 34,000  Level FlightAware
06:54AM 49.2290 -102.6750 316° Northwest 457 526 34,000  Level FlightAware
06:54AM 49.2860 -102.7580 316° Northwest 455 524 34,000  Level FlightAware
06:55AM 49.3540 -102.8590 316° Northwest 453 521 34,000  Level FlightAware
06:55AM 49.4010 -102.9290 316° Northwest 451 519 34,000  Level FlightAware
06:56AM 49.4600 -103.0200 315° West 451 519 34,000  Level FlightAware
06:57AM 49.5350 -103.1300 316° Northwest 451 519 34,000  Level FlightAware
06:58AM 49.6170 -103.2550 315° West 451 519 34,000  Level FlightAware
06:59AM 49.6670 -103.3320 315° West 451 519 34,000  Level FlightAware
06:59AM 49.7170 -103.4100 315° West 451 519 34,000  Level FlightAware
07:00AM 49.7670 -103.4880 315° West 451 519 34,000  Level FlightAware
07:01AM 49.8640 -103.6290 317° Northwest 453 521 34,000  Level FlightAware
07:01AM 49.9140 -103.7070 315° West 453 521 34,000  Level FlightAware
07:02AM 49.9640 -103.7850 315° West 453 521 34,000  Level FlightAware
07:03AM 50.0440 -103.9050 316° Northwest 449 517 34,000  Level FlightAware
07:04AM 50.1350 -104.0470 315° West 446 513 34,000  Level FlightAware
07:04AM 50.1860 -104.1260 315° West 446 513 34,000  Level FlightAware
07:05AM 50.2430 -104.2190 314° West 446 513 34,000  Level FlightAware
07:06AM 50.3130 -104.3260 316° Northwest 442 509 34,000  Level FlightAware
07:06AM 50.3530 -104.3910 314° West 442 509 34,000  Level FlightAware
07:07AM 50.1020 -103.9950 135° Southeast 446 513 34,000  Level FlightAware
07:08AM 50.1600 -104.0860 315° West 446 513 34,000  Level FlightAware
07:09AM 50.5610 -104.7200 315° West 439 505 34,000  Level FlightAware
07:09AM 50.6180 -104.8100 315° West 439 505 34,000  Level FlightAware
07:10AM 50.6620 -104.8880 312° West 435 501 34,000  Level FlightAware
07:11AM 50.7100 -105.0170 300° West 431 496 34,000  Level FlightAware
07:11AM 50.7470 -105.1260 298° West 432 497 34,000  Level FlightAware
07:12AM 50.7900 -105.2590 297° West 433 498 34,000  Level FlightAware
07:13AM 50.8180 -105.3420 298° West 434 499 34,000  Level FlightAware
07:14AM 50.8660 -105.4890 297° West 435 501 34,000  Level FlightAware
07:14AM 50.9060 -105.6120 297° West 436 502 34,000  Level FlightAware
07:15AM 50.9420 -105.7210 298° West 437 503 34,000  Level FlightAware
07:16AM 50.9830 -105.8480 297° West 437 503 34,000  Level FlightAware
07:16AM 51.0180 -105.9540 298° West 437 503 34,000  Level FlightAware
07:17AM 51.0540 -106.0660 297° West 436 502 34,000  Level FlightAware
07:18AM 51.0900 -106.1810 297° West 436 502 34,000  Level FlightAware
07:18AM 51.0870 -106.1740 124° Southeast 436 502 34,000  Level FlightAware
07:19AM 51.1730 -106.4440 297° West 432 497 34,000  Level FlightAware
07:20AM 51.2030 -106.5410 296° West 432 497 34,000  Level FlightAware
07:21AM 51.2400 -106.6630 296° West 432 497 34,000  Level FlightAware
07:21AM 51.2700 -106.7610 296° West 432 497 34,000  Level FlightAware
07:22AM 51.3000 -106.8590 296° West 432 497 34,000  Level FlightAware
07:23AM 51.3300 -106.9560 296° West 432 497 34,000  Level FlightAware
07:23AM 51.1540 -106.3800 116° Southeast 432 497 34,000  Level FlightAware
07:24AM 51.1900 -106.4990 296° West 432 497 34,000  Level FlightAware
07:25AM 51.2270 -106.6210 296° West 432 497 34,000  Level FlightAware
07:25AM 51.2570 -106.7190 296° West 432 497 34,000  Level FlightAware
07:26AM 51.2870 -106.8170 296° West 432 497 34,000  Level FlightAware
07:27AM 51.3170 -106.9140 296° West 432 497 34,000  Level FlightAware
07:27AM 51.3470 -107.0120 296° West 432 497 34,000  Level FlightAware
07:28AM 51.3840 -107.1340 296° West 432 497 34,000  Level FlightAware
07:29AM 51.4140 -107.2320 296° West 432 497 34,000  Level FlightAware
07:30AM 51.4430 -107.3300 295° West 432 497 34,000  Level FlightAware
07:30AM 51.4730 -107.4280 296° West 432 497 34,000  Level FlightAware
07:31AM 51.5100 -107.5510 296° West 432 497 34,000  Level FlightAware
07:32AM 51.5400 -107.6490 296° West 432 497 34,000  Level FlightAware
07:32AM 51.5700 -107.7470 296° West 432 497 34,000  Level FlightAware
07:33AM 51.6000 -107.8460 296° West 432 497 34,000  Level FlightAware
07:34AM 51.9500 -109.1333 296° West 440 506 34,000  Level Edmonton Center
07:35AM 52.0000 -109.3333 292° West 440 506 34,000  Level Edmonton Center
07:36AM 52.0500 -109.5333 292° West 440 506 34,000  Level Edmonton Center
07:37AM 52.1000 -109.7000 296° West 440 506 34,000  Level Edmonton Center
07:38AM 52.1500 -109.8667 296° West 440 506 34,000  Level Edmonton Center
07:39AM 52.2000 -110.0667 292° West 440 506 34,000 540 Level Edmonton Center
07:40AM 52.2500 -110.2333 296° West 440 506 35,100 300 Climbing Edmonton Center
07:46AM 52.5350 -111.1930 296° West 432 497 36,000 120 Climbing FlightAware
07:47AM 52.5830 -111.3790 293° West 433 498 36,000  Level FlightAware
07:48AM 52.6450 -111.6250 293° West 434 499 36,000  Level FlightAware
07:49AM 52.7000 -111.8390 293° West 436 502 36,000  Level FlightAware
07:50AM 52.7540 -112.0560 292° West 439 505 36,000  Level FlightAware
07:51AM 52.8070 -112.2730 292° West 436 502 36,000  Level FlightAware
07:53AM 52.8910 -112.6150 292° West 431 496 36,000  Level FlightAware
07:54AM 52.9420 -112.8280 292° West 426 490 36,000  Level FlightAware
07:55AM 52.9720 -112.9510 292° West 424 488 36,000  Level FlightAware
07:56AM 53.0040 -113.0850 292° West 422 486 36,000  Level FlightAware
07:57AM 53.0330 -113.2090 291° West 419 482 36,000  Level FlightAware
07:57AM 53.0610 -113.3270 292° West 417 480 36,000  Level FlightAware
07:58AM 53.0930 -113.4640 291° West 416 479 36,000  Level FlightAware
07:59AM 53.1200 -113.5810 291° West 413 475 36,000  Level FlightAware
07:59AM 53.1510 -113.7150 291° West 412 474 36,000  Level FlightAware
08:00AM 53.1780 -113.8330 291° West 405 466 36,000  Level FlightAware
08:01AM 53.2150 -113.9360 301° West 383 441 36,000  Level FlightAware
08:01AM 53.2630 -114.0490 305° West 384 442 36,000  Level FlightAware
08:02AM 53.3030 -114.1440 305° West 379 436 36,000  Level FlightAware
08:03AM 53.3500 -114.2540 306° West 378 435 36,000  Level FlightAware
08:04AM 53.3900 -114.3500 305° West 376 433 36,000  Level FlightAware
08:04AM 53.4290 -114.4450 305° West 376 433 36,000  Level FlightAware
08:05AM 53.4750 -114.5540 305° West 376 433 36,000  Level FlightAware
08:06AM 53.5150 -114.6510 305° West 375 432 36,000  Level FlightAware
08:06AM 53.5530 -114.7450 304° West 375 432 36,000  Level FlightAware
08:07AM 53.6010 -114.8600 305° West 375 432 36,000  Level FlightAware
08:08AM 53.6400 -114.9570 304° West 375 432 36,000  Level FlightAware
08:08AM 53.6830 -115.0610 305° West 376 433 36,000  Level FlightAware
08:09AM 53.7380 -115.1970 304° West 379 436 36,000  Level FlightAware
08:10AM 53.7800 -115.3010 304° West 380 437 36,000  Level FlightAware
08:11AM 53.8240 -115.4120 304° West 380 437 36,000  Level FlightAware
08:11AM 53.8640 -115.5100 305° West 381 438 36,000  Level FlightAware
08:12AM 53.9000 -115.6010 304° West 382 440 36,000  Level FlightAware
08:13AM 53.9490 -115.7240 304° West 383 441 36,000  Level FlightAware
08:14AM 53.9980 -115.8520 303° West 384 442 36,000  Level FlightAware
08:14AM 54.0390 -115.9580 303° West 385 443 36,000  Level FlightAware
08:15AM 54.0860 -116.0720 305° West 385 443 36,000  Level FlightAware
08:16AM 54.1510 -116.2440 303° West 385 443 36,000  Level FlightAware
08:17AM 54.2060 -116.3830 304° West 387 445 36,000  Level FlightAware
08:18AM 54.2380 -116.4690 303° West 387 445 36,000  Level FlightAware
08:19AM 54.2780 -116.5790 302° West 387 445 36,000  Level FlightAware
08:19AM 54.3100 -116.6680 302° West 387 445 36,000  Level FlightAware
08:20AM 54.3420 -116.7560 302° West 387 445 36,000  Level FlightAware
08:21AM 54.3750 -116.8450 303° West 387 445 36,000  Level FlightAware
08:23AM 54.5210 -117.2130 304° West 386 444 36,000  Level FlightAware
08:23AM 54.5520 -117.2990 302° West 386 444 36,000  Level FlightAware
08:24AM 54.5920 -117.4100 302° West 386 444 36,000  Level FlightAware
08:25AM 54.6250 -117.4990 303° West 386 444 36,000  Level FlightAware
08:25AM 54.6570 -117.5880 302° West 386 444 36,000  Level FlightAware
08:26AM 54.6890 -117.6770 302° West 386 444 36,000  Level FlightAware
08:27AM 54.7290 -117.7890 302° West 386 444 36,000  Level FlightAware
08:28AM 54.7610 -117.8780 302° West 386 444 36,000  Level FlightAware
08:28AM 54.7930 -117.9670 302° West 386 444 36,000  Level FlightAware
08:29AM 54.8260 -118.0560 303° West 386 444 36,000  Level FlightAware
08:30AM 54.8580 -118.1460 302° West 386 444 36,000  Level FlightAware
08:30AM 54.8980 -118.2580 302° West 386 444 36,000  Level FlightAware
08:31AM 54.9300 -118.3470 302° West 386 444 36,000  Level FlightAware
08:32AM 54.9620 -118.4370 302° West 386 444 36,000  Level FlightAware
08:32AM 54.9950 -118.5270 303° West 386 444 36,000  Level FlightAware
08:33AM 55.1000 -118.9500 303° West 380 437 36,000  Level Edmonton Center
08:34AM 55.1667 -119.1000 308° West 380 437 36,000  Level Edmonton Center
08:35AM 55.2167 -119.2667 298° West 380 437 36,000  Level Edmonton Center
08:37AM 55.2833 -119.5167 295° West 380 437 36,000  Level Edmonton Center
08:38AM 55.3333 -119.6833 298° West 380 437 36,000  Level Edmonton Center
08:39AM 55.3833 -119.8167 303° West 380 437 36,000  Level Edmonton Center
08:40AM 55.4500 -120.0000 303° West 390 449 36,000  Level Edmonton Center
08:41AM 55.5000 -120.1667 298° West 390 449 36,000  Level Edmonton Center
08:42AM 55.5500 -120.3500 296° West 390 449 36,000  Level Edmonton Center
08:43AM 55.6000 -120.5167 298° West 390 449 36,000  Level Edmonton Center
08:44AM 55.6667 -120.6667 308° West 390 449 36,000  Level Edmonton Center
08:45AM 55.7000 -120.8667 287° West 390 449 36,000  Level Edmonton Center
08:46AM 55.7500 -121.0167 301° West 390 449 36,000  Level Edmonton Center
08:47AM 55.8167 -121.2000 303° West 390 449 36,000  Level Edmonton Center
08:48AM 55.8667 -121.3667 298° West 390 449 36,000  Level Edmonton Center
08:49AM 55.9167 -121.5500 296° West 390 449 36,000  Level Edmonton Center
08:50AM 55.9667 -121.7333 296° West 390 449 36,000  Level Edmonton Center
08:52AM 56.0833 -122.0500 304° West 390 449 36,000  Level Edmonton Center
08:53AM 56.1167 -122.2333 288° West 390 449 36,000  Level Edmonton Center
08:54AM 56.1667 -122.4167 296° West 390 449 36,000  Level Edmonton Center
08:55AM 56.2000 -122.5833 290° West 390 449 36,000  Level Edmonton Center
08:56AM 56.2667 -122.7667 303° West 390 449 36,000  Level Edmonton Center
08:57AM 56.3167 -122.9167 301° West 390 449 36,000  Level Edmonton Center
08:58AM 56.3500 -123.1333 286° West 390 449 36,000  Level Edmonton Center
08:59AM 56.4167 -123.2833 309° West 390 449 36,000  Level Edmonton Center
09:00AM 56.4500 -123.4667 288° West 390 449 36,000  Level Edmonton Center
09:01AM 56.5000 -123.6500 296° West 390 449 36,000  Level Edmonton Center
09:02AM 56.5500 -123.8333 296° West 390 449 36,000  Level Edmonton Center
09:03AM 56.6000 -124.0167 296° West 390 449 36,000  Level Edmonton Center
09:04AM 56.6500 -124.2000 296° West 400 460 36,000  Level Edmonton Center
09:05AM 56.7000 -124.3833 296° West 400 460 36,000  Level Edmonton Center
09:06AM 56.7333 -124.5333 292° West 400 460 36,000  Level Edmonton Center
09:07AM 56.8000 -124.7333 301° West 400 460 36,000  Level Edmonton Center
09:08AM 56.8333 -124.9167 288° West 390 449 36,000  Level Edmonton Center
09:09AM 56.8833 -125.1000 297° West 390 449 36,000  Level Edmonton Center
09:10AM 56.9333 -125.2833 297° West 390 449 36,000  Level Edmonton Center
09:11AM 56.9667 -125.4667 289° West 390 449 36,000  Level Edmonton Center
09:13AM 57.0559 -125.8249 295° West  Level FlightAware Approximate
09:20AM 57.3905 -127.2207 294° West  Level FlightAware Approximate
09:21AM 57.4371 -127.4221 293° West  Level FlightAware Approximate
09:22AM 57.4844 -127.6237 294° West  Level FlightAware Approximate
09:23AM 57.5314 -127.8257 293° West  Level FlightAware Approximate
09:24AM 57.5780 -128.0283 293° West  Level FlightAware Approximate
09:25AM 57.6243 -128.2314 293° West  Level FlightAware Approximate
09:26AM 57.6703 -128.4351 293° West  Level FlightAware Approximate
09:27AM 57.7160 -128.6392 293° West  Level FlightAware Approximate
09:28AM 57.7613 -128.8439 293° West  Level FlightAware Approximate
09:29AM 57.8063 -129.0490 292° West  Level FlightAware Approximate
09:30AM 57.8509 -129.2547 292° West  Level FlightAware Approximate
09:31AM 57.8953 -129.4609 292° West  Level FlightAware Approximate
09:32AM 57.9393 -129.6676 292° West  Level FlightAware Approximate
09:33AM 57.9829 -129.8748 292° West  Level FlightAware Approximate
09:34AM 58.0262 -130.0824 292° West  Level FlightAware Approximate
09:35AM 58.0692 -130.2906 291° West  Level FlightAware Approximate
09:36AM 58.1119 -130.4993 291° West  Level FlightAware Approximate
09:37AM 58.1542 -130.7086 291° West  Level FlightAware Approximate
09:38AM 58.1961 -130.9182 291° West  Level FlightAware Approximate
09:39AM 58.2377 -131.1284 291° West  Level FlightAware Approximate
09:40AM 58.2790 -131.3391 291° West  Level FlightAware Approximate
09:41AM 58.3199 -131.5507 290° West  Level FlightAware Approximate
09:42AM 58.3592 -131.7632 289° West  Level FlightAware Approximate
09:43AM 58.3967 -131.9778 289° West  Level FlightAware Approximate
09:44AM 58.4338 -132.1929 288° West  Level FlightAware Approximate
09:45AM 58.4705 -132.4084 288° West  Level FlightAware Approximate
09:46AM 58.5069 -132.6243 288° West  Level FlightAware Approximate
09:47AM 58.5429 -132.8407 288° West  Level FlightAware Approximate
09:48AM 58.5786 -133.0576 288° West  Level FlightAware Approximate
09:49AM 58.6139 -133.2749 287° West  Level FlightAware Approximate
09:50AM 58.6488 -133.4926 287° West  Level FlightAware Approximate
09:51AM 58.6834 -133.7108 287° West  Level FlightAware Approximate
09:52AM 58.7204 -133.9279 289° West  Level FlightAware Approximate
09:53AM 58.7595 -134.1436 289° West  Level FlightAware Approximate
09:53AM 58.6000 -133.1333 286° West 370 426 36,000  Level Anchorage Center
09:54AM 58.7962 -134.3611 288° West  Level FlightAware Approximate
09:54AM 58.6333 -133.3167 289° West 380 437 36,000  Level Anchorage Center
09:55AM 58.8321 -134.5794 288° West  Level FlightAware Approximate
09:55AM 58.6667 -133.5167 288° West 390 449 36,000  Level Anchorage Center
09:56AM 58.8676 -134.7982 288° West  Level FlightAware Approximate
09:56AM 58.6833 -133.7000 280° West 380 437 36,000  Level Anchorage Center
09:57AM 58.9026 -135.0175 286° West  Level FlightAware Approximate
09:57AM 58.7167 -133.9000 288° West 400 460 36,000  Level Anchorage Center
09:58AM 58.9350 -135.2384 286° West  Level FlightAware Approximate
09:58AM 58.7500 -134.0833 289° West 380 437 36,000  Level Anchorage Center
09:59AM 58.7833 -134.2833 288° West 370 426 36,000  Level Anchorage Center
10:00AM 58.8167 -134.4667 289° West 370 426 36,000  Level Anchorage Center
10:01AM 58.8500 -134.6667 288° West 370 426 36,000  Level Anchorage Center
10:02AM 58.8667 -134.8500 280° West 360 414 36,000  Level Anchorage Center
10:03AM 58.9000 -135.0333 289° West 370 426 36,000  Level Anchorage Center
10:04AM 58.9333 -135.2333 288° West 370 426 36,000  Level Anchorage Center
10:05AM 58.9667 -135.4333 288° West 380 437 36,000  Level Anchorage Center
10:06AM 58.9833 -135.6167 280° West 370 426 36,000  Level Anchorage Center
10:07AM 59.0167 -135.8167 288° West 370 426 36,000  Level Anchorage Center
10:08AM 59.0500 -136.0000 290° West 370 426 36,000  Level Anchorage Center
10:09AM 59.0667 -136.2000 279° West 370 426 36,000  Level Anchorage Center
10:10AM 59.1000 -136.4000 288° West 370 426 36,000  Level Anchorage Center
10:11AM 59.1333 -136.6000 288° West 370 426 36,000  Level Anchorage Center
10:12AM 59.1500 -136.8000 279° West 380 437 36,000  Level Anchorage Center
10:13AM 59.1833 -136.9833 290° West 370 426 36,000  Level Anchorage Center
10:14AM 59.2000 -137.1667 280° West 360 414 36,000  Level Anchorage Center
10:15AM 59.2333 -137.3667 288° West 360 414 36,000  Level Anchorage Center
10:16AM 59.2500 -137.5500 280° West 360 414 36,000  Level Anchorage Center
10:17AM 59.2833 -137.7500 288° West 360 414 36,000  Level Anchorage Center
10:18AM 59.3000 -137.9333 280° West 350 403 36,000  Level Anchorage Center
10:19AM 59.3333 -138.1333 288° West 370 426 36,000  Level Anchorage Center
10:20AM 59.3500 -138.3333 279° West 370 426 36,000  Level Anchorage Center
10:21AM 59.3667 -138.5167 280° West 370 426 36,000  Level Anchorage Center
10:22AM 59.4000 -138.7167 288° West 380 437 36,000  Level Anchorage Center
10:23AM 59.4167 -138.9167 279° West 370 426 36,000  Level Anchorage Center
10:24AM 59.4500 -139.1333 287° West 380 437 36,000  Level Anchorage Center
10:25AM 59.4667 -139.3333 279° West 380 437 36,000  Level Anchorage Center
10:26AM 59.4833 -139.5167 280° West 370 426 36,000  Level Anchorage Center
10:27AM 59.5167 -139.7333 287° West 390 449 36,000  Level Anchorage Center
10:28AM 59.5500 -139.9000 292° West 380 437 36,000  Level Anchorage Center
10:29AM 59.5833 -140.1000 288° West 390 449 36,000  Level Anchorage Center
10:30AM 59.6167 -140.3000 288° West 390 449 36,000  Level Anchorage Center
10:31AM 59.6500 -140.5000 288° West 380 437 36,000  Level Anchorage Center
10:32AM 59.7000 -140.7000 296° West 390 449 36,000  Level Anchorage Center
10:33AM 59.7333 -140.9167 287° West 400 460 36,000  Level Anchorage Center
10:34AM 59.7667 -141.1167 288° West 390 449 36,000  Level Anchorage Center
10:35AM 59.8000 -141.3167 288° West 390 449 36,000  Level Anchorage Center
10:36AM 59.8500 -141.5167 297° West 390 449 36,000  Level Anchorage Center
10:37AM 59.8833 -141.7167 288° West 390 449 36,000  Level Anchorage Center
10:38AM 59.9167 -141.9333 287° West 390 449 36,000  Level Anchorage Center
10:39AM 59.9500 -142.1333 288° West 390 449 36,000  Level Anchorage Center
10:40AM 59.9833 -142.3333 289° West 390 449 36,000  Level Anchorage Center
10:41AM 60.0333 -142.5333 297° West 390 449 36,000  Level Anchorage Center
10:42AM 60.0667 -142.7500 287° West 380 437 36,000  Level Anchorage Center
10:43AM 60.1000 -142.9500 289° West 390 449 36,000  Level Anchorage Center
10:44AM 60.1333 -143.1500 289° West 390 449 36,000  Level Anchorage Center
10:45AM 60.1667 -143.3833 286° West 380 437 36,000  Level Anchorage Center
10:46AM 60.2000 -143.5833 289° West 370 426 36,000  Level Anchorage Center
10:47AM 60.2333 -143.8000 287° West 390 449 36,000  Level Anchorage Center
10:48AM 60.2667 -144.0000 289° West 370 426 36,000  Level Anchorage Center
10:49AM 60.3000 -144.2000 289° West 380 437 36,000  Level Anchorage Center
10:50AM 60.3333 -144.4167 287° West 380 437 36,000  Level Anchorage Center
10:51AM 60.3667 -144.6167 289° West 380 437 36,000  Level Anchorage Center
10:52AM 60.4000 -144.8167 289° West 380 437 36,000  Level Anchorage Center
10:53AM 60.4333 -145.0333 287° West 380 437 36,000  Level Anchorage Center
10:54AM 60.4667 -145.2333 289° West 390 449 36,000  Level Anchorage Center
10:55AM 60.4833 -145.4333 280° West 360 414 36,000  Level Anchorage Center
10:56AM 60.5167 -145.6500 287° West 390 449 36,000  Level Anchorage Center
10:57AM 60.5500 -145.8667 287° West 390 449 36,000  Level Anchorage Center
10:58AM 60.5833 -146.0833 287° West 400 460 36,000 -180 Level Anchorage Center
11:04AM 60.7650 -147.4070 287° West 409 471 35,100 -660 Descending FlightAware
11:04AM 60.7900 -147.5850 286° West 394 453 31,900 -2,820 Descending FlightAware
11:05AM 60.8050 -147.7070 284° West 390 449 31,400 -420 Descending FlightAware
11:06AM 60.8200 -147.8290 284° West 390 449 31,400 -3,120 Level FlightAware
11:06AM 60.8420 -148.0010 285° West 366 421 27,300 -3,420 Descending FlightAware
11:07AM 60.8570 -148.1330 283° West 366 421 26,600 -2,340 Descending FlightAware
11:08AM 60.8760 -148.2770 285° West 370 426 24,000 -2,400 Descending FlightAware
11:09AM 60.8930 -148.4260 283° West 373 429 23,200 -1,920 Descending FlightAware
11:09AM 60.9130 -148.5910 284° West 374 430 21,200 -2,820 Descending FlightAware
11:10AM 60.9370 -148.7830 285° West 380 437 18,500 -2,460 Descending FlightAware
11:11AM 60.9630 -149.0060 284° West 372 428 16,300 -2,040 Descending FlightAware
11:13AM 60.9930 -149.2680 283° West 368 423 13,800 -1,740 Descending FlightAware
11:14AM 61.0370 -149.4710 294° West 349 402 12,300 -1,320 Descending FlightAware
11:14AM 61.0760 -149.6150 299° West 334 384 11,300 -1,320 Descending FlightAware
11:15AM 61.1020 -149.7300 295° West 319 367 10,400 -1,020 Descending FlightAware
11:16AM 61.1070 -149.8450 275° West 288 331 10,000 -960 Descending FlightAware
11:16AM 61.1110 -149.9180 277° West 275 316 9,300 -1,980 Descending FlightAware
11:17AM 61.1120 -150.0270 271° West 273 314 7,700 -2,400 Descending FlightAware
11:17AM 61.1120 -150.1050 270° West 270 311 6,500 -2,280 Descending FlightAware
11:18AM 61.1120 -150.1440 270° West 264 304 6,000 -1,680 Descending FlightAware
11:18AM 61.1120 -150.1950 270° West 258 297 5,400 -1,980 Descending FlightAware
11:19AM 61.1130 -150.2810 271° West 256 295 4,200 -1,920 Descending FlightAware
11:19AM 61.1120 -150.3200 267° West 244 281 3,800 -840 Descending FlightAware
11:20AM 61.1200 -150.4140 280° West 195 224 3,300 -840 Descending FlightAware
11:20AM 61.1300 -150.4230 337° Northwest 181 208 3,000 -1,500 Descending FlightAware
11:20AM 61.1530 -150.3910 34° Northeast 183 211 2,200 -1,200 Descending FlightAware
11:21AM 61.1570 -150.3650 72° East 172 198 2,100 -180 Descending FlightAware
11:21AM 61.1650 -150.3220 69° East 171 197 2,100  Level FlightAware
11:21AM 61.1670 -150.3030 78° East 176 203 2,100  Level FlightAware
11:22AM 61.1670 -150.2530 90° East 176 203 2,100  Level FlightAware
11:22AM 61.1670 -150.2310 90° East 159 183 2,100 -420 Level FlightAware
11:23AM 61.1670 -150.1890 90° East 142 163 1,800 -780 Descending FlightAware
11:23AM 61.1680 -150.1740 82° East 135 155 1,600 -840 Descending FlightAware
11:23AM 61.1680 -150.1480 90° East 135 155 1,400 -840 Descending FlightAware
11:24AM 61.1680 -150.1150 90° East 134 154 1,000 -720 Descending FlightAware
11:24AM 61.1680 -150.0870 90° East 134 154 800 -660 Descending FlightAware
11:24AM 61.1680 -150.0510 90° East 133 153 400 -840 Descending FlightAware